Time;durP1;ratioP1;P1;durP2;ratioP2;P2;SDS_P1;SDS_P2;PMS_P1;PMS_P2;Temp;Humidity;BMP_temperature;BMP_pressure;BME280_temperature;BME280_humidity;BME280_pressure;Samples;Min_cycle;Max_cycle;Signal;HPM_P1;HPM_P2
2022/01/30 00:01:08;;;;;;;28.58;4.68;;;5.60;99.90;;;;;;5061471;28;20052;-62
2022/01/30 00:03:34;;;;;;;22.80;3.88;;;5.70;99.90;;;;;;5078667;28;20115;-62
2022/01/30 00:06:00;;;;;;;30.13;6.70;;;5.90;99.90;;;;;;5044444;28;20129;-62
2022/01/30 00:08:25;;;;;;;32.25;6.13;;;5.90;99.90;;;;;;5059584;28;20048;-63
2022/01/30 00:10:57;;;;;;;26.23;4.82;;;5.70;99.90;;;;;;5061697;28;20036;-64
2022/01/30 00:13:27;;;;;;;22.55;4.60;;;5.70;99.90;;;;;;5097098;28;20052;-63
2022/01/30 00:15:54;;;;;;;27.75;5.07;;;5.70;99.90;;;;;;5101973;28;20036;-62
2022/01/30 00:24:13;;;;;;;28.73;4.90;;;5.30;99.90;;;;;;5019408;28;20049;-66
2022/01/30 00:26:41;;;;;;;32.53;5.15;;;5.00;99.90;;;;;;5070181;28;20056;-66
2022/01/30 00:29:07;;;;;;;23.13;4.63;;;5.10;99.90;;;;;;5062977;28;20044;-66
2022/01/30 00:31:34;;;;;;;17.95;2.70;;;4.80;99.90;;;;;;5047283;28;20383;-66
2022/01/30 00:34:01;;;;;;;10.40;2.38;;;4.60;99.90;;;;;;5080792;28;20062;-65
2022/01/30 00:36:30;;;;;;;14.40;3.22;;;4.50;99.90;;;;;;5081077;28;20040;-66
2022/01/30 00:38:57;;;;;;;16.48;3.13;;;4.40;99.90;;;;;;5081442;28;20051;-64
2022/01/30 00:41:23;;;;;;;29.52;5.13;;;4.60;99.90;;;;;;5081426;28;20037;-64
2022/01/30 00:43:49;;;;;;;20.80;4.43;;;4.90;99.90;;;;;;5081736;28;20036;-64
2022/01/30 00:46:15;;;;;;;29.00;4.85;;;5.00;99.90;;;;;;5081247;28;20117;-65
2022/01/30 00:48:40;;;;;;;30.85;5.75;;;5.00;99.90;;;;;;5081467;28;20052;-64
2022/01/30 00:51:06;;;;;;;29.35;5.00;;;4.90;99.90;;;;;;5080569;28;20068;-65
2022/01/30 00:53:32;;;;;;;33.97;5.50;;;4.90;99.90;;;;;;5062765;28;20056;-65
2022/01/30 00:55:58;;;;;;;31.48;5.80;;;4.80;99.90;;;;;;5080758;28;20049;-65
2022/01/30 00:58:24;;;;;;;24.98;4.28;;;4.90;99.90;;;;;;5080725;28;20075;-65
2022/01/30 01:00:49;;;;;;;36.72;6.35;;;4.80;99.90;;;;;;5062932;28;20040;-65
2022/01/30 01:03:17;;;;;;;30.42;5.50;;;4.70;99.90;;;;;;5062547;28;20432;-64
2022/01/30 01:05:43;;;;;;;30.80;4.55;;;4.80;99.90;;;;;;5081384;28;20052;-64
2022/01/30 01:08:15;;;;;;;29.35;6.22;;;4.80;99.90;;;;;;5080326;28;20095;-64
2022/01/30 01:10:47;;;;;;;31.73;5.67;;;4.90;99.90;;;;;;5080799;28;20074;-65
2022/01/30 01:13:49;;;;;;;32.83;5.25;;;4.90;99.90;;;;;;5095831;28;20051;-65
2022/01/30 01:24:08;;;;;;;29.38;4.38;;;5.10;99.90;;;;;;5100749;28;20044;-64
2022/01/30 01:26:38;;;;;;;27.10;5.70;;;5.00;99.90;;;;;;5101258;28;20046;-64
2022/01/30 01:29:06;;;;;;;34.58;5.32;;;5.30;99.90;;;;;;5060028;28;20037;-64
2022/01/30 01:31:32;;;;;;;23.73;4.93;;;5.30;99.90;;;;;;5060897;28;20048;-64
2022/01/30 01:34:25;;;;;;;30.00;5.90;;;5.30;99.90;;;;;;5059988;28;20120;-64
2022/01/30 01:36:50;;;;;;;25.42;4.63;;;5.30;99.90;;;;;;5041946;28;20041;-64
2022/01/30 01:39:16;;;;;;;26.27;5.47;;;5.30;99.90;;;;;;5060175;28;20055;-64
2022/01/30 01:41:42;;;;;;;24.13;4.07;;;5.20;99.90;;;;;;5059868;28;20120;-64
2022/01/30 01:44:20;;;;;;;26.50;4.22;;;5.20;99.90;;;;;;5025530;28;20053;-63
2022/01/30 01:46:46;;;;;;;22.95;4.50;;;5.10;99.90;;;;;;5040280;28;20052;-65
2022/01/30 01:49:19;;;;;;;23.63;4.20;;;5.20;99.90;;;;;;5059385;28;20608;-63
2022/01/30 01:51:50;;;;;;;27.13;5.45;;;5.00;99.90;;;;;;5059786;28;20120;-64
2022/01/30 01:54:16;;;;;;;31.60;5.07;;;5.10;99.90;;;;;;5041485;28;20056;-64
2022/01/30 01:56:41;;;;;;;27.88;5.13;;;5.20;99.90;;;;;;5059985;28;20041;-63
2022/01/30 01:59:07;;;;;;;34.40;5.03;;;5.30;99.90;;;;;;5041614;28;20045;-64
2022/01/30 02:01:33;;;;;;;37.08;6.55;;;5.50;99.90;;;;;;5042034;28;20041;-63
2022/01/30 02:03:58;;;;;;;37.20;7.50;;;5.50;99.90;;;;;;5059346;28;20495;-64
2022/01/30 02:06:26;;;;;;;38.40;8.52;;;5.60;99.90;;;;;;5059977;28;20067;-65
2022/01/30 02:09:00;;;;;;;30.65;6.55;;;5.60;99.90;;;;;;5041612;28;20043;-64
2022/01/30 02:11:35;;;;;;;33.00;6.95;;;5.70;99.90;;;;;;5042402;28;20044;-64
2022/01/30 02:27:21;;;;;;;28.77;6.38;;;5.00;99.90;;;;;;5063292;28;20051;-65
2022/01/30 02:29:47;;;;;;;29.52;5.32;;;5.10;99.90;;;;;;5061183;28;20041;-64
2022/01/30 02:32:13;;;;;;;32.92;6.50;;;5.10;99.90;;;;;;5061435;28;20055;-65
2022/01/30 02:34:39;;;;;;;31.95;6.10;;;5.10;99.90;;;;;;5061141;28;20069;-64
2022/01/30 02:37:05;;;;;;;29.55;6.03;;;5.20;99.90;;;;;;5060855;28;20100;-65
2022/01/30 02:39:31;;;;;;;40.42;7.10;;;5.20;99.90;;;;;;5061625;28;20359;-64
2022/01/30 02:41:57;;;;;;;39.08;6.22;;;5.30;99.90;;;;;;5061049;28;20067;-64
2022/01/30 02:46:55;;;;;;;32.55;6.18;;;5.40;99.90;;;;;;5060917;28;20102;-63
2022/01/30 02:51:59;;;;;;;37.58;6.40;;;5.40;99.90;;;;;;5060409;28;20049;-63
2022/01/30 02:54:26;;;;;;;32.75;6.20;;;5.90;99.90;;;;;;5078428;28;20063;-63
2022/01/30 02:56:52;;;;;;;39.72;8.75;;;5.30;99.90;;;;;;5061457;28;20498;-62
2022/01/30 02:59:18;;;;;;;39.05;7.38;;;5.40;99.90;;;;;;5060726;28;20074;-63
2022/01/30 03:01:43;;;;;;;37.55;7.13;;;5.40;99.90;;;;;;5079559;28;20082;-63
2022/01/30 03:04:10;;;;;;;37.60;7.45;;;5.40;99.90;;;;;;5060534;28;20100;-63
2022/01/30 03:06:36;;;;;;;35.28;7.72;;;5.50;99.90;;;;;;5079085;28;20076;-63
2022/01/30 03:09:04;;;;;;;31.83;6.40;;;5.50;99.90;;;;;;5078648;28;20085;-63
2022/01/30 03:11:30;;;;;;;48.83;10.00;;;5.70;99.90;;;;;;5080164;28;20591;-63
2022/01/30 03:13:56;;;;;;;36.53;8.25;;;5.70;99.90;;;;;;5098923;28;20056;-63
2022/01/30 03:16:22;;;;;;;35.35;7.15;;;5.60;99.90;;;;;;5098420;28;20442;-63
2022/01/30 03:18:48;;;;;;;34.38;6.20;;;5.70;99.90;;;;;;5080828;28;20070;-63
2022/01/30 03:21:14;;;;;;;43.25;6.40;;;5.60;99.90;;;;;;5098194;28;20043;-63
2022/01/30 03:23:40;;;;;;;33.33;7.13;;;5.70;99.90;;;;;;5098421;28;20052;-63
2022/01/30 03:26:07;;;;;;;34.67;7.63;;;5.70;99.90;;;;;;5098345;28;20047;-63
2022/01/30 03:28:33;;;;;;;37.00;6.35;;;5.70;99.90;;;;;;5081774;28;20043;-63
2022/01/30 03:31:06;;;;;;;36.53;6.80;;;5.70;99.90;;;;;;5078350;28;20068;-63
2022/01/30 03:33:32;;;;;;;36.17;7.45;;;5.70;99.90;;;;;;5059895;28;20053;-63
2022/01/30 03:35:58;;;;;;;37.60;7.15;;;5.70;99.90;;;;;;5060930;28;20114;-63
2022/01/30 03:38:24;;;;;;;33.65;5.68;;;5.70;99.90;;;;;;5043304;28;20044;-64
2022/01/30 03:40:50;;;;;;;37.53;7.30;;;5.70;99.90;;;;;;5060180;28;20075;-63
2022/01/30 03:43:16;;;;;;;33.97;7.13;;;5.80;99.90;;;;;;5077760;28;20047;-63
2022/01/30 03:45:43;;;;;;;37.25;6.47;;;5.80;99.90;;;;;;5078378;28;20087;-63
2022/01/30 03:48:08;;;;;;;38.75;6.50;;;5.80;99.90;;;;;;5060979;28;20409;-63
2022/01/30 03:50:34;;;;;;;40.72;7.03;;;6.00;99.90;;;;;;5069855;28;20044;-63
2022/01/30 03:53:00;;;;;;;42.72;8.23;;;6.00;99.90;;;;;;5077643;28;20055;-62
2022/01/30 03:55:26;;;;;;;44.63;7.97;;;6.00;99.90;;;;;;5078309;28;20032;-65
2022/01/30 03:57:52;;;;;;;38.15;7.93;;;5.60;99.90;;;;;;5078072;28;20116;-66
2022/01/30 04:00:18;;;;;;;34.90;6.78;;;5.00;99.90;;;;;;5077830;28;20089;-65
2022/01/30 04:02:44;;;;;;;39.95;6.07;;;4.90;99.90;;;;;;5076620;28;20096;-65
2022/01/30 04:05:09;;;;;;;42.45;7.53;;;5.20;99.90;;;;;;5078911;28;20052;-65
2022/01/30 04:07:36;;;;;;;57.10;10.45;;;5.20;99.90;;;;;;5077011;28;20045;-65
2022/01/30 04:10:04;;;;;;;43.55;9.55;;;5.30;99.90;;;;;;5079354;28;20055;-64
2022/01/30 04:12:30;;;;;;;41.33;9.55;;;5.20;99.90;;;;;;5073815;28;20086;-64
2022/01/30 04:14:56;;;;;;;63.22;9.07;;;5.40;99.90;;;;;;5102285;28;20047;-65
2022/01/30 04:17:22;;;;;;;43.05;7.93;;;5.40;99.90;;;;;;5083690;28;20044;-65
2022/01/30 04:19:48;;;;;;;43.67;9.27;;;5.30;99.90;;;;;;5099926;28;20048;-64
2022/01/30 04:22:15;;;;;;;45.05;9.50;;;5.30;99.90;;;;;;5100751;28;20531;-64
2022/01/30 04:24:41;;;;;;;41.85;8.23;;;5.30;99.90;;;;;;5100158;28;20050;-64
2022/01/30 04:27:06;;;;;;;42.03;8.90;;;5.30;99.90;;;;;;5096796;28;20063;-64
2022/01/30 04:29:32;;;;;;;46.60;9.00;;;5.40;99.90;;;;;;5079908;28;20123;-64
2022/01/30 04:31:59;;;;;;;47.95;8.85;;;5.30;99.90;;;;;;5080529;28;20082;-64
2022/01/30 04:34:26;;;;;;;52.17;12.18;;;5.40;99.90;;;;;;5081653;28;20072;-65
2022/01/30 04:37:04;;;;;;;42.25;8.20;;;5.40;99.90;;;;;;5080116;28;20065;-64
2022/01/30 04:42:30;;;;;;;49.13;9.13;;;5.40;99.90;;;;;;5063441;28;20080;-64
2022/01/30 04:56:20;;;;;;;49.72;11.13;;;5.60;99.90;;;;;;5079237;28;20048;-63
2022/01/30 05:06:16;;;;;;;50.08;7.35;;;5.60;99.90;;;;;;5081266;28;20052;-64
2022/01/30 05:08:43;;;;;;;48.13;8.77;;;5.50;99.90;;;;;;5079617;28;20060;-64
2022/01/30 05:11:09;;;;;;;52.60;9.25;;;5.50;99.90;;;;;;5079138;28;20074;-64
2022/01/30 05:13:41;;;;;;;37.38;7.38;;;5.50;99.90;;;;;;5100812;28;20040;-64
2022/01/30 05:16:07;;;;;;;36.55;7.40;;;5.50;99.90;;;;;;5101045;28;20052;-63
2022/01/30 05:18:33;;;;;;;37.20;7.57;;;5.40;99.90;;;;;;5101426;28;20043;-63
2022/01/30 05:20:59;;;;;;;36.10;6.82;;;5.30;99.90;;;;;;5098786;28;20128;-63
2022/01/30 05:23:25;;;;;;;30.13;7.10;;;5.30;99.90;;;;;;5100551;28;20046;-63
2022/01/30 05:25:52;;;;;;;51.20;9.75;;;5.30;99.90;;;;;;5100479;28;20370;-62
2022/01/30 05:28:22;;;;;;;52.40;9.32;;;5.20;99.90;;;;;;5067967;28;20056;-63
2022/01/30 05:30:48;;;;;;;40.33;8.68;;;5.70;99.90;;;;;;5078902;28;20041;-63
2022/01/30 05:33:14;;;;;;;48.83;9.43;;;5.40;99.90;;;;;;5079828;28;20043;-64
2022/01/30 05:35:40;;;;;;;41.33;8.85;;;5.50;99.90;;;;;;5079326;28;20041;-63
2022/01/30 05:38:06;;;;;;;43.50;6.65;;;5.50;99.90;;;;;;5061880;28;20041;-63
2022/01/30 05:40:35;;;;;;;46.38;9.40;;;5.60;99.90;;;;;;5080131;28;20047;-62
2022/01/30 05:43:02;;;;;;;38.45;6.72;;;5.70;99.90;;;;;;5078393;28;20052;-62
2022/01/30 05:45:36;;;;;;;54.90;8.95;;;5.70;99.90;;;;;;5078670;28;20080;-63
2022/01/30 05:48:15;;;;;;;45.83;8.50;;;5.70;99.90;;;;;;5078722;28;20076;-62
2022/01/30 05:50:43;;;;;;;39.30;8.60;;;5.70;99.90;;;;;;5077713;28;20102;-62
2022/01/30 05:53:09;;;;;;;41.95;8.38;;;5.80;99.90;;;;;;5080191;28;20437;-63
2022/01/30 05:55:35;;;;;;;47.90;7.68;;;5.80;99.90;;;;;;5079548;28;20148;-62
2022/01/30 05:58:01;;;;;;;35.40;7.80;;;5.70;99.90;;;;;;5078156;28;20048;-62
2022/01/30 06:00:27;;;;;;;41.78;8.88;;;5.80;99.90;;;;;;5078215;28;20041;-62
2022/01/30 06:02:54;;;;;;;38.10;9.30;;;5.80;99.90;;;;;;5079437;28;20514;-63
2022/01/30 06:05:22;;;;;;;36.50;6.80;;;5.80;99.90;;;;;;5079641;28;20044;-63
2022/01/30 06:07:56;;;;;;;44.60;8.63;;;5.70;99.90;;;;;;5079125;28;20048;-63
2022/01/30 06:10:26;;;;;;;51.75;9.65;;;5.80;99.90;;;;;;5079607;28;20060;-64
2022/01/30 06:12:52;;;;;;;39.38;7.65;;;5.60;99.90;;;;;;5091747;28;20051;-62
2022/01/30 06:15:19;;;;;;;34.33;7.55;;;5.50;99.90;;;;;;5099599;28;20035;-62
2022/01/30 06:17:44;;;;;;;35.33;7.47;;;5.50;99.90;;;;;;5098022;28;20093;-63
2022/01/30 06:20:12;;;;;;;38.17;7.90;;;5.50;99.90;;;;;;5099103;28;20036;-62
2022/01/30 06:22:38;;;;;;;47.20;7.30;;;5.50;99.90;;;;;;5099957;28;20059;-62
2022/01/30 06:25:05;;;;;;;37.17;6.38;;;5.50;99.90;;;;;;5099022;28;20050;-62
2022/01/30 06:27:31;;;;;;;33.60;6.03;;;5.50;99.90;;;;;;5091591;28;20120;-65
2022/01/30 06:29:57;;;;;;;40.97;7.75;;;5.50;99.90;;;;;;5078892;28;20041;-62
2022/01/30 06:32:22;;;;;;;40.63;8.00;;;5.60;99.90;;;;;;5077016;28;20119;-62
2022/01/30 06:34:48;;;;;;;35.85;6.22;;;5.60;99.90;;;;;;5077488;28;20045;-62
2022/01/30 06:37:15;;;;;;;36.00;7.03;;;5.70;99.90;;;;;;5079007;28;20036;-61
2022/01/30 06:39:41;;;;;;;32.72;7.30;;;5.60;99.90;;;;;;5079848;28;20063;-61
2022/01/30 06:42:07;;;;;;;49.58;8.23;;;5.70;99.90;;;;;;5078644;28;20615;-62
2022/01/30 06:44:33;;;;;;;37.08;7.45;;;5.70;99.90;;;;;;5077938;28;20040;-61
2022/01/30 06:46:59;;;;;;;34.85;9.10;;;5.70;99.90;;;;;;5078803;28;20811;-62
2022/01/30 06:49:24;;;;;;;46.97;8.02;;;5.80;99.90;;;;;;5078607;28;20070;-62
2022/01/30 06:51:50;;;;;;;36.45;7.65;;;5.70;99.90;;;;;;5077853;28;20048;-62
2022/01/30 06:54:16;;;;;;;63.35;10.95;;;5.80;99.90;;;;;;5060863;28;20048;-62
2022/01/30 06:56:42;;;;;;;39.95;9.63;;;5.70;99.90;;;;;;5079237;28;20063;-61
2022/01/30 06:59:07;;;;;;;44.08;9.10;;;5.70;99.90;;;;;;5060829;28;20043;-61
2022/01/30 07:01:33;;;;;;;37.40;10.70;;;5.70;99.90;;;;;;5061059;28;20040;-62
2022/01/30 07:03:59;;;;;;;46.00;8.45;;;5.70;99.90;;;;;;5060766;28;20041;-62
2022/01/30 07:06:24;;;;;;;44.58;9.05;;;5.70;99.90;;;;;;5079197;28;20068;-62
2022/01/30 07:08:50;;;;;;;47.15;9.80;;;5.60;99.90;;;;;;5078909;28;20079;-61
2022/01/30 07:11:16;;;;;;;37.80;7.57;;;5.60;99.90;;;;;;5079694;28;20041;-62
2022/01/30 07:13:42;;;;;;;41.67;8.38;;;5.60;99.90;;;;;;5099587;28;20047;-62
2022/01/30 07:16:08;;;;;;;37.45;8.98;;;5.60;99.90;;;;;;5063439;28;20065;-61
2022/01/30 07:18:34;;;;;;;36.70;8.20;;;5.60;99.90;;;;;;5064545;28;20071;-62
2022/01/30 07:20:59;;;;;;;37.72;7.65;;;5.60;99.90;;;;;;5098499;28;20123;-62
2022/01/30 07:23:25;;;;;;;27.48;6.15;;;5.60;99.90;;;;;;5063981;28;20056;-62
2022/01/30 07:25:51;;;;;;;28.17;5.82;;;5.60;99.90;;;;;;5063998;28;20052;-62
2022/01/30 07:28:16;;;;;;;27.98;5.28;;;5.60;99.90;;;;;;5084797;28;20032;-61
2022/01/30 07:30:42;;;;;;;33.67;5.93;;;5.60;99.90;;;;;;5079013;28;20048;-61
2022/01/30 07:33:08;;;;;;;38.83;6.13;;;5.60;99.90;;;;;;5078611;28;20037;-62
2022/01/30 07:35:36;;;;;;;32.65;5.68;;;5.70;99.90;;;;;;5079094;28;20048;-61
2022/01/30 07:38:03;;;;;;;28.95;5.93;;;5.70;99.90;;;;;;5078436;28;20083;-62
2022/01/30 07:40:32;;;;;;;28.77;6.10;;;5.60;99.90;;;;;;5060848;28;20044;-61
2022/01/30 07:42:57;;;;;;;26.10;5.60;;;5.60;99.90;;;;;;5060513;28;20048;-61
2022/01/30 07:45:25;;;;;;;31.58;7.43;;;5.60;99.90;;;;;;5079758;28;20044;-62
2022/01/30 07:47:51;;;;;;;28.83;6.13;;;5.50;99.90;;;;;;5061411;28;20056;-61
2022/01/30 07:50:17;;;;;;;30.42;5.65;;;5.50;99.90;;;;;;5078410;28;20156;-62
2022/01/30 07:52:43;;;;;;;37.15;8.15;;;5.60;99.90;;;;;;5079948;28;20045;-62
2022/01/30 07:55:09;;;;;;;33.25;5.75;;;5.60;99.90;;;;;;5078904;28;20040;-61
2022/01/30 07:57:35;;;;;;;35.13;6.60;;;5.60;99.90;;;;;;5061021;28;20052;-61
2022/01/30 08:00:01;;;;;;;34.75;5.88;;;5.50;99.90;;;;;;5060934;28;20071;-61
2022/01/30 08:02:26;;;;;;;34.00;6.80;;;5.50;99.90;;;;;;5078957;28;20052;-61
2022/01/30 08:04:55;;;;;;;31.48;6.00;;;5.60;99.90;;;;;;5044493;28;20330;-61
2022/01/30 08:07:21;;;;;;;30.67;6.80;;;5.60;99.90;;;;;;5078722;28;20066;-61
2022/01/30 08:09:47;;;;;;;41.10;8.57;;;5.60;99.90;;;;;;5060968;28;20048;-61
2022/01/30 08:12:12;;;;;;;35.50;7.18;;;5.60;99.90;;;;;;5068984;28;20054;-61
2022/01/30 08:14:38;;;;;;;36.40;6.93;;;5.50;99.90;;;;;;5099250;28;20048;-62
2022/01/30 08:17:04;;;;;;;39.30;7.38;;;5.60;99.90;;;;;;5098904;28;20554;-61
2022/01/30 08:19:30;;;;;;;34.42;6.88;;;5.50;99.90;;;;;;5098604;28;20032;-62
2022/01/30 08:21:57;;;;;;;35.35;7.70;;;5.50;99.90;;;;;;5080359;28;20044;-62
2022/01/30 08:24:24;;;;;;;42.85;7.32;;;5.50;99.90;;;;;;5080388;28;20080;-61
2022/01/30 08:26:50;;;;;;;33.78;6.72;;;5.50;99.90;;;;;;5078786;28;20046;-62
2022/01/30 08:29:16;;;;;;;34.65;6.72;;;5.40;99.90;;;;;;5060347;28;20147;-62
2022/01/30 08:31:42;;;;;;;31.17;6.35;;;5.50;99.90;;;;;;5078622;28;20064;-61
2022/01/30 08:34:08;;;;;;;38.45;6.32;;;5.60;99.90;;;;;;5059907;28;20048;-62
2022/01/30 08:36:33;;;;;;;35.17;7.78;;;5.60;99.90;;;;;;5060123;28;20040;-61
2022/01/30 08:38:59;;;;;;;45.22;7.43;;;5.60;99.90;;;;;;5060487;28;20094;-61
2022/01/30 08:41:25;;;;;;;36.63;7.55;;;5.70;99.90;;;;;;5059954;28;20087;-64
2022/01/30 08:43:50;;;;;;;26.17;6.50;;;5.60;99.90;;;;;;5078780;28;20079;-61
2022/01/30 08:46:17;;;;;;;46.63;7.55;;;5.60;99.90;;;;;;5059564;28;20144;-61
2022/01/30 08:48:43;;;;;;;34.92;7.45;;;5.70;99.90;;;;;;5078578;28;20076;-61
2022/01/30 08:51:09;;;;;;;38.88;7.65;;;5.60;99.90;;;;;;5065766;28;20060;-61
2022/01/30 08:53:35;;;;;;;35.88;7.32;;;5.60;99.90;;;;;;5077974;28;20060;-62
2022/01/30 08:56:00;;;;;;;42.72;7.90;;;5.50;99.90;;;;;;5077479;28;20045;-61
2022/01/30 08:58:26;;;;;;;32.63;6.15;;;5.60;99.90;;;;;;5076072;28;20159;-61
2022/01/30 09:00:52;;;;;;;40.05;7.35;;;5.70;99.90;;;;;;5077220;28;20044;-61
2022/01/30 09:03:18;;;;;;;30.13;6.07;;;5.80;99.90;;;;;;5077673;28;20087;-61
2022/01/30 09:05:43;;;;;;;44.53;8.25;;;5.80;99.90;;;;;;5078489;28;20091;-61
2022/01/30 09:08:09;;;;;;;36.97;8.40;;;5.80;99.90;;;;;;5077476;28;20075;-62
2022/01/30 09:10:36;;;;;;;41.95;7.70;;;5.80;99.90;;;;;;5076150;28;20624;-62
2022/01/30 09:13:03;;;;;;;36.83;6.28;;;5.70;99.90;;;;;;5077643;28;20049;-61
2022/01/30 09:15:29;;;;;;;43.08;7.35;;;5.70;99.90;;;;;;5076216;28;20106;-62
2022/01/30 09:17:58;;;;;;;30.60;6.90;;;5.70;99.90;;;;;;5077829;28;20049;-61
2022/01/30 09:20:24;;;;;;;32.25;6.35;;;5.80;99.90;;;;;;5075982;28;20443;-61
2022/01/30 09:22:51;;;;;;;30.75;6.72;;;6.00;99.90;;;;;;5076173;28;20844;-61
2022/01/30 09:25:17;;;;;;;34.17;5.82;;;6.00;99.90;;;;;;5077179;28;20115;-61
2022/01/30 09:27:44;;;;;;;33.55;5.95;;;6.00;99.90;;;;;;5075925;28;20072;-61
2022/01/30 09:30:10;;;;;;;33.63;5.85;;;6.00;99.90;;;;;;5059138;28;20537;-62
2022/01/30 09:32:36;;;;;;;34.72;6.85;;;6.10;99.90;;;;;;5077228;28;20585;-61
2022/01/30 09:35:03;;;;;;;30.15;6.15;;;6.20;99.90;;;;;;5077315;28;20096;-61
2022/01/30 09:37:29;;;;;;;35.33;7.05;;;6.20;99.90;;;;;;5075666;28;20044;-61
2022/01/30 09:39:55;;;;;;;34.47;5.90;;;6.20;99.90;;;;;;5077717;28;20053;-61
2022/01/30 09:42:23;;;;;;;35.58;6.10;;;6.00;99.90;;;;;;5076670;28;20052;-61
2022/01/30 09:44:49;;;;;;;39.92;6.65;;;6.10;99.90;;;;;;5077066;28;20036;-61
2022/01/30 09:47:17;;;;;;;34.25;6.55;;;6.10;99.90;;;;;;5076660;28;20037;-61
2022/01/30 09:49:48;;;;;;;30.77;6.07;;;6.10;99.90;;;;;;5076886;28;20036;-61
2022/01/30 09:52:15;;;;;;;37.67;6.32;;;6.10;99.90;;;;;;5077175;28;20049;-61
2022/01/30 09:54:40;;;;;;;31.40;6.20;;;6.10;99.90;;;;;;5058876;28;20048;-61
2022/01/30 09:57:07;;;;;;;32.47;5.97;;;6.10;99.90;;;;;;5077237;28;20041;-61
2022/01/30 09:59:32;;;;;;;32.20;7.30;;;6.10;99.90;;;;;;5076055;28;20051;-61
2022/01/30 10:01:58;;;;;;;31.20;7.72;;;6.20;99.90;;;;;;5076627;28;20048;-60
2022/01/30 10:04:24;;;;;;;31.33;6.43;;;6.30;99.90;;;;;;5041975;28;20068;-61
2022/01/30 10:06:55;;;;;;;32.83;6.65;;;6.50;99.90;;;;;;5076545;28;20039;-62
2022/01/30 10:09:34;;;;;;;32.63;6.95;;;6.60;99.90;;;;;;5058201;28;20041;-61
2022/01/30 10:12:19;;;;;;;28.25;7.13;;;6.50;99.90;;;;;;5076171;28;20040;-61
2022/01/30 10:15:05;;;;;;;41.90;7.32;;;6.50;99.90;;;;;;5076561;28;20036;-61
2022/01/30 10:17:48;;;;;;;35.38;8.30;;;6.40;99.90;;;;;;5076542;28;20059;-61
2022/01/30 10:20:22;;;;;;;34.58;7.88;;;6.40;99.90;;;;;;5075900;28;20063;-61
2022/01/30 10:23:07;;;;;;;45.10;8.27;;;6.30;99.90;;;;;;5076347;28;20033;-61
2022/01/30 10:25:39;;;;;;;31.73;7.22;;;6.30;99.90;;;;;;5058044;28;20159;-61
2022/01/30 10:28:09;;;;;;;39.05;7.10;;;6.20;99.90;;;;;;5041363;28;20047;-61
2022/01/30 10:30:55;;;;;;;39.53;6.93;;;6.10;99.90;;;;;;5076439;28;20068;-61
2022/01/30 10:33:36;;;;;;;33.28;5.43;;;6.00;99.90;;;;;;5075770;28;20048;-61
2022/01/30 10:36:03;;;;;;;38.47;8.45;;;6.20;99.90;;;;;;5058183;28;20532;-61
2022/01/30 10:38:36;;;;;;;29.63;5.88;;;6.30;99.90;;;;;;5075944;28;20087;-61
2022/01/30 10:41:17;;;;;;;33.40;7.13;;;6.40;99.90;;;;;;5075805;28;20091;-61
2022/01/30 10:44:07;;;;;;;39.72;7.75;;;6.30;99.90;;;;;;5041799;28;20047;-61
2022/01/30 10:46:48;;;;;;;32.33;6.18;;;6.40;99.90;;;;;;5069983;28;20174;-62
2022/01/30 10:49:19;;;;;;;31.63;6.00;;;6.30;99.90;;;;;;5057206;28;20057;-61
2022/01/30 10:51:52;;;;;;;31.53;6.53;;;6.30;99.90;;;;;;5075869;28;20059;-61
2022/01/30 10:54:17;;;;;;;38.20;7.00;;;6.40;99.90;;;;;;5075887;28;20086;-61
2022/01/30 10:56:43;;;;;;;29.23;5.88;;;6.40;99.90;;;;;;5076444;28;20620;-61
2022/01/30 10:59:22;;;;;;;32.13;6.22;;;6.50;99.90;;;;;;5075336;28;20056;-61
2022/01/30 11:01:50;;;;;;;25.88;5.25;;;6.50;99.90;;;;;;5041266;28;20048;-61
2022/01/30 11:04:27;;;;;;;35.13;6.00;;;6.70;99.90;;;;;;5057492;28;20078;-61
2022/01/30 11:06:55;;;;;;;34.10;6.40;;;6.60;99.90;;;;;;5057514;28;20037;-61
2022/01/30 11:09:26;;;;;;;38.13;7.18;;;6.50;99.90;;;;;;5076180;28;20123;-61
2022/01/30 11:12:01;;;;;;;38.85;7.15;;;6.40;99.90;;;;;;5062882;28;20048;-61
2022/01/30 11:17:20;;;;;;;28.95;5.35;;;6.50;99.90;;;;;;5082064;28;20095;-61
2022/01/30 11:19:48;;;;;;;28.73;6.78;;;6.60;99.90;;;;;;5042268;28;20060;-61
2022/01/30 11:22:19;;;;;;;36.10;6.93;;;6.60;99.90;;;;;;5079939;28;20032;-61
2022/01/30 11:24:50;;;;;;;35.25;6.93;;;6.70;99.90;;;;;;5061365;28;20059;-61
2022/01/30 11:27:18;;;;;;;33.95;6.07;;;6.60;99.90;;;;;;5079971;28;20848;-62
2022/01/30 11:29:45;;;;;;;35.72;7.72;;;6.70;99.90;;;;;;5079664;28;20070;-61
2022/01/30 11:32:12;;;;;;;26.92;5.90;;;6.70;99.90;;;;;;5079474;28;20116;-62
2022/01/30 11:34:40;;;;;;;32.38;6.60;;;6.80;99.90;;;;;;5079336;28;20701;-61
2022/01/30 11:37:08;;;;;;;43.80;7.22;;;6.80;99.90;;;;;;5061263;28;20043;-61
2022/01/30 11:39:37;;;;;;;32.20;6.60;;;6.90;99.90;;;;;;5080048;28;20820;-61
2022/01/30 11:42:18;;;;;;;31.60;7.07;;;6.90;99.90;;;;;;5079118;28;20049;-62
2022/01/30 11:44:46;;;;;;;30.35;6.10;;;6.90;99.90;;;;;;5061427;28;20059;-62
2022/01/30 11:47:12;;;;;;;44.05;7.88;;;6.90;99.90;;;;;;5078698;28;20656;-61
2022/01/30 11:49:43;;;;;;;34.63;6.20;;;6.90;99.90;;;;;;5078732;28;20076;-61
2022/01/30 11:52:11;;;;;;;38.47;7.40;;;6.90;99.90;;;;;;5079358;28;20140;-61
2022/01/30 11:54:42;;;;;;;34.38;6.95;;;7.00;99.90;;;;;;5061113;28;20052;-61
2022/01/30 11:57:20;;;;;;;39.63;7.13;;;7.00;99.90;;;;;;5061157;28;20123;-61
2022/01/30 11:59:57;;;;;;;39.08;7.38;;;7.00;99.90;;;;;;5078540;28;20044;-61
2022/01/30 12:02:34;;;;;;;29.55;6.43;;;7.20;99.90;;;;;;5078606;28;20194;-61
2022/01/30 12:05:03;;;;;;;40.88;7.00;;;7.20;99.90;;;;;;5079300;28;20041;-61
2022/01/30 12:07:37;;;;;;;30.95;7.45;;;7.20;99.90;;;;;;5078883;28;20040;-61
2022/01/30 12:10:21;;;;;;;38.83;6.90;;;7.10;99.90;;;;;;5078919;28;20036;-61
2022/01/30 12:12:55;;;;;;;38.28;6.57;;;6.90;99.90;;;;;;5092357;28;20055;-61
2022/01/30 12:15:38;;;;;;;27.48;5.68;;;6.70;99.90;;;;;;5098958;28;20052;-61
2022/01/30 12:18:06;;;;;;;33.42;6.60;;;6.60;99.90;;;;;;5099077;28;20436;-61
2022/01/30 12:20:52;;;;;;;40.25;9.00;;;6.40;99.90;;;;;;5098350;28;20048;-59
2022/01/30 12:23:32;;;;;;;33.22;6.78;;;6.30;99.90;;;;;;5098552;28;20135;-61
2022/01/30 12:26:04;;;;;;;35.67;7.47;;;6.20;99.90;;;;;;5099672;28;20058;-62
2022/01/30 12:28:43;;;;;;;29.40;8.48;;;6.20;99.90;;;;;;5085186;28;20086;-62
2022/01/30 12:31:32;;;;;;;32.67;6.75;;;6.30;99.90;;;;;;5062939;28;20044;-61
2022/01/30 12:34:05;;;;;;;33.58;6.97;;;6.50;99.90;;;;;;5081330;28;20061;-61
2022/01/30 12:36:43;;;;;;;31.40;6.03;;;6.60;99.90;;;;;;5081394;28;20040;-61
2022/01/30 12:39:18;;;;;;;30.00;6.13;;;6.70;99.90;;;;;;5081603;28;20044;-61
2022/01/30 12:41:44;;;;;;;30.08;6.72;;;6.70;99.90;;;;;;5081252;28;20045;-61
2022/01/30 12:44:13;;;;;;;29.98;5.97;;;6.80;99.90;;;;;;5082000;28;20101;-61
2022/01/30 12:46:48;;;;;;;28.85;5.18;;;6.70;99.90;;;;;;5063176;28;20033;-61
2022/01/30 12:49:21;;;;;;;25.58;5.22;;;6.60;99.90;;;;;;5080454;28;20048;-61
2022/01/30 12:51:56;;;;;;;33.17;5.60;;;6.50;99.90;;;;;;5081200;28;20057;-61
2022/01/30 12:54:29;;;;;;;31.63;6.28;;;6.50;99.90;;;;;;5063010;28;20543;-61
2022/01/30 12:56:55;;;;;;;22.35;3.95;;;6.30;99.90;;;;;;5063924;28;20044;-62
2022/01/30 12:59:25;;;;;;;27.83;6.28;;;6.20;99.90;;;;;;5045910;28;20583;-61
2022/01/30 13:01:51;;;;;;;30.00;5.88;;;6.10;99.90;;;;;;5081035;28;20040;-61
2022/01/30 13:04:23;;;;;;;27.13;5.72;;;6.20;99.90;;;;;;5080779;28;20079;-61
2022/01/30 13:06:51;;;;;;;33.03;6.07;;;6.30;99.90;;;;;;5080961;28;20498;-61
2022/01/30 13:09:22;;;;;;;24.75;5.20;;;6.50;99.90;;;;;;5081244;28;20044;-62
2022/01/30 13:11:49;;;;;;;22.42;5.53;;;6.70;99.90;;;;;;5080298;28;20072;-61
2022/01/30 13:14:15;;;;;;;32.83;7.25;;;6.80;99.90;;;;;;5062699;28;20037;-61
2022/01/30 13:16:49;;;;;;;33.58;5.97;;;6.80;99.90;;;;;;5045573;28;20065;-61
2022/01/30 13:19:28;;;;;;;29.45;5.20;;;6.70;99.90;;;;;;5080200;28;20048;-61
2022/01/30 13:21:54;;;;;;;24.05;4.53;;;6.70;99.90;;;;;;5080913;28;20131;-61
2022/01/30 13:24:20;;;;;;;26.05;6.45;;;6.60;99.90;;;;;;5080388;28;20047;-61
2022/01/30 13:26:47;;;;;;;30.50;5.40;;;6.50;99.90;;;;;;5080898;28;20048;-61
2022/01/30 13:29:21;;;;;;;31.42;5.78;;;6.30;99.90;;;;;;5080263;28;20033;-61
2022/01/30 13:31:53;;;;;;;28.00;5.18;;;6.30;99.90;;;;;;5062152;28;20048;-62
2022/01/30 13:34:21;;;;;;;30.38;5.70;;;6.30;99.90;;;;;;5080397;28;20088;-60
2022/01/30 13:36:54;;;;;;;24.60;5.55;;;6.20;99.90;;;;;;5080413;28;20067;-61
2022/01/30 13:42:44;;;;;;;30.10;5.78;;;6.30;99.90;;;;;;5057404;28;20049;-62
2022/01/30 13:48:01;;;;;;;29.17;5.97;;;6.30;99.90;;;;;;5080259;28;20048;-62
2022/01/30 13:50:33;;;;;;;30.35;6.07;;;6.30;99.90;;;;;;5079746;28;20036;-62
2022/01/30 13:53:03;;;;;;;33.45;5.82;;;6.30;99.90;;;;;;5080137;28;20072;-62
2022/01/30 13:55:30;;;;;;;30.95;5.47;;;6.30;99.90;;;;;;5079633;28;20052;-62